sensor_id;sensor_type;location;lat;lon;timestamp;temperature;humidity
3380;DHT22;1703;51.964;7.642;2023-06-22T00:01:02;22.60;99.90
3380;DHT22;1703;51.964;7.642;2023-06-22T00:03:30;22.60;99.90
3380;DHT22;1703;51.964;7.642;2023-06-22T00:05:57;22.50;99.90
3380;DHT22;1703;51.964;7.642;2023-06-22T00:08:24;22.50;99.90
3380;DHT22;1703;51.964;7.642;2023-06-22T00:10:51;22.50;99.90
3380;DHT22;1703;51.964;7.642;2023-06-22T00:13:18;22.40;99.90
3380;DHT22;1703;51.964;7.642;2023-06-22T00:15:45;22.30;99.90
3380;DHT22;1703;51.964;7.642;2023-06-22T00:18:12;22.30;99.90
3380;DHT22;1703;51.964;7.642;2023-06-22T00:20:41;22.30;99.90
3380;DHT22;1703;51.964;7.642;2023-06-22T00:23:11;22.20;99.90
3380;DHT22;1703;51.964;7.642;2023-06-22T00:25:41;22.20;99.90
3380;DHT22;1703;51.964;7.642;2023-06-22T00:28:08;22.20;99.90
3380;DHT22;1703;51.964;7.642;2023-06-22T00:30:35;22.20;99.90
3380;DHT22;1703;51.964;7.642;2023-06-22T00:33:02;22.20;99.90
3380;DHT22;1703;51.964;7.642;2023-06-22T00:35:33;22.20;99.90
3380;DHT22;1703;51.964;7.642;2023-06-22T00:38:04;22.20;99.90
3380;DHT22;1703;51.964;7.642;2023-06-22T00:40:32;22.10;99.90
3380;DHT22;1703;51.964;7.642;2023-06-22T00:42:59;22.10;99.90
3380;DHT22;1703;51.964;7.642;2023-06-22T00:45:27;22.10;99.90
3380;DHT22;1703;51.964;7.642;2023-06-22T00:48:05;22.00;99.90
3380;DHT22;1703;51.964;7.642;2023-06-22T00:50:39;22.00;99.90
3380;DHT22;1703;51.964;7.642;2023-06-22T00:53:08;22.00;99.90
3380;DHT22;1703;51.964;7.642;2023-06-22T00:55:36;22.00;99.90
3380;DHT22;1703;51.964;7.642;2023-06-22T00:58:04;21.90;99.90
3380;DHT22;1703;51.964;7.642;2023-06-22T01:00:35;22.00;99.90
3380;DHT22;1703;51.964;7.642;2023-06-22T01:03:04;21.80;99.90
3380;DHT22;1703;51.964;7.642;2023-06-22T01:05:34;21.80;99.90
3380;DHT22;1703;51.964;7.642;2023-06-22T01:08:10;21.80;99.90
3380;DHT22;1703;51.964;7.642;2023-06-22T01:10:43;21.80;99.90
3380;DHT22;1703;51.964;7.642;2023-06-22T01:13:18;21.80;99.90
3380;DHT22;1703;51.964;7.642;2023-06-22T01:15:50;21.80;99.90
3380;DHT22;1703;51.964;7.642;2023-06-22T01:18:20;21.70;99.90
3380;DHT22;1703;51.964;7.642;2023-06-22T01:20:52;21.70;99.90
3380;DHT22;1703;51.964;7.642;2023-06-22T01:23:29;21.70;99.90
3380;DHT22;1703;51.964;7.642;2023-06-22T01:26:04;21.70;99.90
3380;DHT22;1703;51.964;7.642;2023-06-22T01:28:45;21.60;99.90
3380;DHT22;1703;51.964;7.642;2023-06-22T01:31:14;21.50;99.90
3380;DHT22;1703;51.964;7.642;2023-06-22T01:33:44;21.50;99.90
3380;DHT22;1703;51.964;7.642;2023-06-22T01:36:13;21.50;99.90
3380;DHT22;1703;51.964;7.642;2023-06-22T01:38:42;21.40;99.90
3380;DHT22;1703;51.964;7.642;2023-06-22T01:41:11;21.40;99.90
3380;DHT22;1703;51.964;7.642;2023-06-22T01:43:40;21.40;99.90
3380;DHT22;1703;51.964;7.642;2023-06-22T01:46:08;21.40;99.90
3380;DHT22;1703;51.964;7.642;2023-06-22T01:48:35;21.40;99.90
3380;DHT22;1703;51.964;7.642;2023-06-22T01:51:02;21.40;99.90
3380;DHT22;1703;51.964;7.642;2023-06-22T01:53:29;21.40;99.90
3380;DHT22;1703;51.964;7.642;2023-06-22T01:55:56;21.40;99.90
3380;DHT22;1703;51.964;7.642;2023-06-22T01:58:26;21.40;99.90
3380;DHT22;1703;51.964;7.642;2023-06-22T02:00:58;21.30;99.90
3380;DHT22;1703;51.964;7.642;2023-06-22T02:03:32;21.40;99.90
3380;DHT22;1703;51.964;7.642;2023-06-22T02:06:04;21.30;99.90
3380;DHT22;1703;51.964;7.642;2023-06-22T02:08:36;21.30;99.90
3380;DHT22;1703;51.964;7.642;2023-06-22T02:11:06;21.30;99.90
3380;DHT22;1703;51.964;7.642;2023-06-22T02:13:36;21.20;99.90
3380;DHT22;1703;51.964;7.642;2023-06-22T02:16:05;21.30;99.90
3380;DHT22;1703;51.964;7.642;2023-06-22T02:18:32;21.30;99.90
3380;DHT22;1703;51.964;7.642;2023-06-22T02:21:01;21.30;99.90
3380;DHT22;1703;51.964;7.642;2023-06-22T02:23:27;21.30;99.90
3380;DHT22;1703;51.964;7.642;2023-06-22T02:25:55;21.30;99.90
3380;DHT22;1703;51.964;7.642;2023-06-22T02:28:23;21.30;99.90
3380;DHT22;1703;51.964;7.642;2023-06-22T02:30:50;21.30;99.90
3380;DHT22;1703;51.964;7.642;2023-06-22T02:33:20;21.20;99.90
3380;DHT22;1703;51.964;7.642;2023-06-22T02:35:46;21.20;99.90
3380;DHT22;1703;51.964;7.642;2023-06-22T02:38:15;21.10;99.90
3380;DHT22;1703;51.964;7.642;2023-06-22T02:40:43;21.20;99.90
3380;DHT22;1703;51.964;7.642;2023-06-22T02:43:10;21.20;99.90
3380;DHT22;1703;51.964;7.642;2023-06-22T02:45:37;21.10;99.90
3380;DHT22;1703;51.964;7.642;2023-06-22T02:48:05;21.10;99.90
3380;DHT22;1703;51.964;7.642;2023-06-22T02:50:33;21.10;99.90
3380;DHT22;1703;51.964;7.642;2023-06-22T02:53:00;21.20;99.90
3380;DHT22;1703;51.964;7.642;2023-06-22T02:55:31;21.20;99.90
3380;DHT22;1703;51.964;7.642;2023-06-22T02:57:58;21.10;99.90
3380;DHT22;1703;51.964;7.642;2023-06-22T03:00:31;21.10;99.90
3380;DHT22;1703;51.964;7.642;2023-06-22T03:02:59;21.00;99.90
3380;DHT22;1703;51.964;7.642;2023-06-22T03:05:26;21.00;99.90
3380;DHT22;1703;51.964;7.642;2023-06-22T03:07:54;21.00;99.90
3380;DHT22;1703;51.964;7.642;2023-06-22T03:10:21;21.00;99.90
3380;DHT22;1703;51.964;7.642;2023-06-22T03:12:48;21.00;99.90
3380;DHT22;1703;51.964;7.642;2023-06-22T03:15:15;21.00;99.90
3380;DHT22;1703;51.964;7.642;2023-06-22T03:17:43;21.00;99.90
3380;DHT22;1703;51.964;7.642;2023-06-22T03:20:10;20.90;99.90
3380;DHT22;1703;51.964;7.642;2023-06-22T03:22:39;21.00;99.90
3380;DHT22;1703;51.964;7.642;2023-06-22T03:25:08;20.90;99.90
3380;DHT22;1703;51.964;7.642;2023-06-22T03:27:39;20.90;99.90
3380;DHT22;1703;51.964;7.642;2023-06-22T03:30:09;20.90;99.90
3380;DHT22;1703;51.964;7.642;2023-06-22T03:32:36;20.90;99.90
3380;DHT22;1703;51.964;7.642;2023-06-22T03:35:05;20.80;99.90
3380;DHT22;1703;51.964;7.642;2023-06-22T03:37:34;20.80;99.90
3380;DHT22;1703;51.964;7.642;2023-06-22T03:40:02;20.80;99.90
3380;DHT22;1703;51.964;7.642;2023-06-22T03:42:34;20.80;99.90
3380;DHT22;1703;51.964;7.642;2023-06-22T03:45:02;20.80;99.90
3380;DHT22;1703;51.964;7.642;2023-06-22T03:47:29;20.80;99.90
3380;DHT22;1703;51.964;7.642;2023-06-22T03:49:59;20.80;99.90
3380;DHT22;1703;51.964;7.642;2023-06-22T03:52:25;20.80;99.90
3380;DHT22;1703;51.964;7.642;2023-06-22T03:54:52;20.80;99.90
3380;DHT22;1703;51.964;7.642;2023-06-22T03:57:19;20.80;99.90
3380;DHT22;1703;51.964;7.642;2023-06-22T03:59:47;20.70;99.90
3380;DHT22;1703;51.964;7.642;2023-06-22T04:02:14;20.70;99.90
3380;DHT22;1703;51.964;7.642;2023-06-22T04:04:41;20.70;99.90
3380;DHT22;1703;51.964;7.642;2023-06-22T04:07:07;20.70;99.90
3380;DHT22;1703;51.964;7.642;2023-06-22T04:09:34;20.70;99.90
3380;DHT22;1703;51.964;7.642;2023-06-22T04:12:01;20.70;99.90
3380;DHT22;1703;51.964;7.642;2023-06-22T04:14:28;20.70;99.90
3380;DHT22;1703;51.964;7.642;2023-06-22T04:16:57;20.70;99.90
3380;DHT22;1703;51.964;7.642;2023-06-22T04:19:24;20.80;99.90
3380;DHT22;1703;51.964;7.642;2023-06-22T04:21:51;20.80;99.90
3380;DHT22;1703;51.964;7.642;2023-06-22T04:24:18;20.80;99.90
3380;DHT22;1703;51.964;7.642;2023-06-22T04:26:45;20.80;99.90
3380;DHT22;1703;51.964;7.642;2023-06-22T04:29:13;20.80;99.90
3380;DHT22;1703;51.964;7.642;2023-06-22T04:31:40;20.80;99.90
3380;DHT22;1703;51.964;7.642;2023-06-22T04:34:09;20.80;99.90
3380;DHT22;1703;51.964;7.642;2023-06-22T04:36:37;20.80;99.90
3380;DHT22;1703;51.964;7.642;2023-06-22T04:39:05;20.80;99.90
3380;DHT22;1703;51.964;7.642;2023-06-22T04:41:35;20.80;99.90
3380;DHT22;1703;51.964;7.642;2023-06-22T04:44:08;20.90;99.90
3380;DHT22;1703;51.964;7.642;2023-06-22T04:46:35;20.90;99.90
3380;DHT22;1703;51.964;7.642;2023-06-22T04:49:04;21.00;99.90
3380;DHT22;1703;51.964;7.642;2023-06-22T04:51:40;21.00;99.90
3380;DHT22;1703;51.964;7.642;2023-06-22T04:54:08;21.00;99.90
3380;DHT22;1703;51.964;7.642;2023-06-22T04:56:35;21.00;99.90
3380;DHT22;1703;51.964;7.642;2023-06-22T04:59:02;21.00;99.90
3380;DHT22;1703;51.964;7.642;2023-06-22T05:01:29;21.00;99.90
3380;DHT22;1703;51.964;7.642;2023-06-22T05:04:00;21.10;99.90
3380;DHT22;1703;51.964;7.642;2023-06-22T05:06:31;21.10;99.90
3380;DHT22;1703;51.964;7.642;2023-06-22T05:09:02;21.10;99.90
3380;DHT22;1703;51.964;7.642;2023-06-22T05:11:31;21.20;99.90
3380;DHT22;1703;51.964;7.642;2023-06-22T05:13:59;21.30;99.90
3380;DHT22;1703;51.964;7.642;2023-06-22T05:16:27;21.30;99.90
3380;DHT22;1703;51.964;7.642;2023-06-22T05:18:54;21.40;99.90
3380;DHT22;1703;51.964;7.642;2023-06-22T05:21:52;21.50;99.90
3380;DHT22;1703;51.964;7.642;2023-06-22T05:38:28;21.50;99.90
3380;DHT22;1703;51.964;7.642;2023-06-22T05:40:57;21.60;99.90
3380;DHT22;1703;51.964;7.642;2023-06-22T05:43:24;21.70;99.90
3380;DHT22;1703;51.964;7.642;2023-06-22T05:45:51;21.70;99.90
3380;DHT22;1703;51.964;7.642;2023-06-22T05:48:18;21.80;99.90
3380;DHT22;1703;51.964;7.642;2023-06-22T05:50:45;21.80;99.90
3380;DHT22;1703;51.964;7.642;2023-06-22T05:53:11;21.80;99.90
3380;DHT22;1703;51.964;7.642;2023-06-22T05:55:40;21.90;99.90
3380;DHT22;1703;51.964;7.642;2023-06-22T05:58:06;21.90;99.90
3380;DHT22;1703;51.964;7.642;2023-06-22T06:00:33;22.00;99.90
3380;DHT22;1703;51.964;7.642;2023-06-22T06:03:00;22.10;99.90
3380;DHT22;1703;51.964;7.642;2023-06-22T06:05:29;22.10;99.90
3380;DHT22;1703;51.964;7.642;2023-06-22T06:07:55;22.10;99.90
3380;DHT22;1703;51.964;7.642;2023-06-22T06:10:23;22.30;99.90
3380;DHT22;1703;51.964;7.642;2023-06-22T06:12:51;22.30;99.90
3380;DHT22;1703;51.964;7.642;2023-06-22T06:15:18;22.40;99.90
3380;DHT22;1703;51.964;7.642;2023-06-22T06:17:46;22.40;99.90
3380;DHT22;1703;51.964;7.642;2023-06-22T06:20:13;22.40;99.90
3380;DHT22;1703;51.964;7.642;2023-06-22T06:22:40;22.40;99.90
3380;DHT22;1703;51.964;7.642;2023-06-22T06:25:09;22.40;99.90
3380;DHT22;1703;51.964;7.642;2023-06-22T06:27:41;22.50;99.90
3380;DHT22;1703;51.964;7.642;2023-06-22T06:30:11;22.50;99.90
3380;DHT22;1703;51.964;7.642;2023-06-22T06:32:38;22.50;99.90
3380;DHT22;1703;51.964;7.642;2023-06-22T06:35:06;22.50;99.90
3380;DHT22;1703;51.964;7.642;2023-06-22T06:37:35;22.60;99.90
3380;DHT22;1703;51.964;7.642;2023-06-22T06:40:02;22.70;99.90
3380;DHT22;1703;51.964;7.642;2023-06-22T06:42:30;22.70;99.90
3380;DHT22;1703;51.964;7.642;2023-06-22T06:45:00;22.70;99.90
3380;DHT22;1703;51.964;7.642;2023-06-22T06:47:28;22.70;99.90
3380;DHT22;1703;51.964;7.642;2023-06-22T06:49:55;22.80;99.90
3380;DHT22;1703;51.964;7.642;2023-06-22T06:52:21;22.80;99.90
3380;DHT22;1703;51.964;7.642;2023-06-22T06:54:48;22.80;99.90
3380;DHT22;1703;51.964;7.642;2023-06-22T06:57:17;22.80;99.90
3380;DHT22;1703;51.964;7.642;2023-06-22T06:59:44;22.90;99.90
3380;DHT22;1703;51.964;7.642;2023-06-22T07:02:10;23.00;99.90
3380;DHT22;1703;51.964;7.642;2023-06-22T07:04:39;23.10;99.90
3380;DHT22;1703;51.964;7.642;2023-06-22T07:07:05;23.20;99.90
3380;DHT22;1703;51.964;7.642;2023-06-22T07:09:32;23.20;99.90
3380;DHT22;1703;51.964;7.642;2023-06-22T07:12:00;23.30;99.90
3380;DHT22;1703;51.964;7.642;2023-06-22T07:14:26;23.40;99.90
3380;DHT22;1703;51.964;7.642;2023-06-22T07:16:57;23.40;99.90
3380;DHT22;1703;51.964;7.642;2023-06-22T07:19:27;23.40;99.90
3380;DHT22;1703;51.964;7.642;2023-06-22T07:21:56;23.40;99.90
3380;DHT22;1703;51.964;7.642;2023-06-22T07:24:23;23.40;99.90
3380;DHT22;1703;51.964;7.642;2023-06-22T07:26:51;23.50;99.90
3380;DHT22;1703;51.964;7.642;2023-06-22T07:29:18;23.40;99.90
3380;DHT22;1703;51.964;7.642;2023-06-22T07:31:47;23.50;99.90
3380;DHT22;1703;51.964;7.642;2023-06-22T07:34:15;23.60;99.90
3380;DHT22;1703;51.964;7.642;2023-06-22T07:36:45;23.60;99.90
3380;DHT22;1703;51.964;7.642;2023-06-22T07:39:14;23.60;99.90
3380;DHT22;1703;51.964;7.642;2023-06-22T07:41:41;23.60;99.90
3380;DHT22;1703;51.964;7.642;2023-06-22T07:44:08;23.70;99.90
3380;DHT22;1703;51.964;7.642;2023-06-22T07:46:35;23.70;99.90
3380;DHT22;1703;51.964;7.642;2023-06-22T07:49:02;23.70;99.90
3380;DHT22;1703;51.964;7.642;2023-06-22T07:51:29;23.70;99.90
3380;DHT22;1703;51.964;7.642;2023-06-22T07:53:56;23.70;99.90
3380;DHT22;1703;51.964;7.642;2023-06-22T07:56:24;23.70;99.90
3380;DHT22;1703;51.964;7.642;2023-06-22T07:58:51;23.60;99.90
3380;DHT22;1703;51.964;7.642;2023-06-22T08:01:19;23.60;99.90
3380;DHT22;1703;51.964;7.642;2023-06-22T08:03:47;23.60;99.90
3380;DHT22;1703;51.964;7.642;2023-06-22T08:06:14;23.60;99.90
3380;DHT22;1703;51.964;7.642;2023-06-22T08:08:41;23.60;99.90
3380;DHT22;1703;51.964;7.642;2023-06-22T08:11:09;23.60;99.90
3380;DHT22;1703;51.964;7.642;2023-06-22T08:13:37;23.60;99.90
3380;DHT22;1703;51.964;7.642;2023-06-22T08:16:04;23.60;99.90
3380;DHT22;1703;51.964;7.642;2023-06-22T08:18:32;23.60;99.90
3380;DHT22;1703;51.964;7.642;2023-06-22T08:20:59;23.60;99.90
3380;DHT22;1703;51.964;7.642;2023-06-22T08:23:26;23.60;99.90
3380;DHT22;1703;51.964;7.642;2023-06-22T08:25:53;23.60;99.90
3380;DHT22;1703;51.964;7.642;2023-06-22T08:28:20;23.70;99.90
3380;DHT22;1703;51.964;7.642;2023-06-22T08:30:48;23.70;99.90
3380;DHT22;1703;51.964;7.642;2023-06-22T08:33:15;23.70;99.90
3380;DHT22;1703;51.964;7.642;2023-06-22T08:35:42;23.80;99.90
3380;DHT22;1703;51.964;7.642;2023-06-22T08:38:09;23.80;99.90
3380;DHT22;1703;51.964;7.642;2023-06-22T08:40:36;23.90;99.90
3380;DHT22;1703;51.964;7.642;2023-06-22T08:43:02;23.90;99.90
3380;DHT22;1703;51.964;7.642;2023-06-22T08:45:29;23.90;99.90
3380;DHT22;1703;51.964;7.642;2023-06-22T08:47:57;24.00;99.90
3380;DHT22;1703;51.964;7.642;2023-06-22T08:50:24;24.00;99.90
3380;DHT22;1703;51.964;7.642;2023-06-22T08:52:51;24.10;99.90
3380;DHT22;1703;51.964;7.642;2023-06-22T08:55:18;24.20;99.90
3380;DHT22;1703;51.964;7.642;2023-06-22T08:57:46;24.20;99.90
3380;DHT22;1703;51.964;7.642;2023-06-22T09:00:14;24.20;99.90
3380;DHT22;1703;51.964;7.642;2023-06-22T09:02:46;24.20;99.90
3380;DHT22;1703;51.964;7.642;2023-06-22T09:05:14;24.30;99.90
3380;DHT22;1703;51.964;7.642;2023-06-22T09:07:41;24.40;99.90
3380;DHT22;1703;51.964;7.642;2023-06-22T09:10:09;24.40;99.90
3380;DHT22;1703;51.964;7.642;2023-06-22T09:12:35;24.50;99.90
3380;DHT22;1703;51.964;7.642;2023-06-22T09:15:04;24.50;99.90
3380;DHT22;1703;51.964;7.642;2023-06-22T09:17:32;24.50;99.90
3380;DHT22;1703;51.964;7.642;2023-06-22T09:19:59;24.40;99.90
3380;DHT22;1703;51.964;7.642;2023-06-22T09:22:27;24.50;99.90
3380;DHT22;1703;51.964;7.642;2023-06-22T09:24:55;24.50;99.90
3380;DHT22;1703;51.964;7.642;2023-06-22T09:27:23;24.50;99.90
3380;DHT22;1703;51.964;7.642;2023-06-22T09:29:50;24.60;99.90
3380;DHT22;1703;51.964;7.642;2023-06-22T09:32:17;24.60;99.90
3380;DHT22;1703;51.964;7.642;2023-06-22T09:34:43;24.60;99.90
3380;DHT22;1703;51.964;7.642;2023-06-22T09:37:10;24.70;99.90
3380;DHT22;1703;51.964;7.642;2023-06-22T09:39:38;24.80;99.90
3380;DHT22;1703;51.964;7.642;2023-06-22T09:42:08;24.80;99.90
3380;DHT22;1703;51.964;7.642;2023-06-22T09:44:35;25.00;99.90
3380;DHT22;1703;51.964;7.642;2023-06-22T09:47:02;25.10;99.90
3380;DHT22;1703;51.964;7.642;2023-06-22T09:49:29;25.30;99.90
3380;DHT22;1703;51.964;7.642;2023-06-22T09:51:56;25.40;99.90
3380;DHT22;1703;51.964;7.642;2023-06-22T09:54:23;25.50;99.90
3380;DHT22;1703;51.964;7.642;2023-06-22T09:56:51;25.60;99.90
3380;DHT22;1703;51.964;7.642;2023-06-22T09:59:18;25.70;99.90
3380;DHT22;1703;51.964;7.642;2023-06-22T10:01:49;25.70;99.90
3380;DHT22;1703;51.964;7.642;2023-06-22T10:04:16;25.70;99.90
3380;DHT22;1703;51.964;7.642;2023-06-22T10:06:43;25.80;99.90
3380;DHT22;1703;51.964;7.642;2023-06-22T10:09:10;25.70;99.90
3380;DHT22;1703;51.964;7.642;2023-06-22T10:11:42;25.70;99.90
3380;DHT22;1703;51.964;7.642;2023-06-22T10:14:10;25.70;99.90
3380;DHT22;1703;51.964;7.642;2023-06-22T10:16:37;25.70;99.90
3380;DHT22;1703;51.964;7.642;2023-06-22T10:19:04;25.70;99.90
3380;DHT22;1703;51.964;7.642;2023-06-22T10:21:31;25.80;99.90
3380;DHT22;1703;51.964;7.642;2023-06-22T10:23:58;25.90;99.90
3380;DHT22;1703;51.964;7.642;2023-06-22T10:26:27;26.00;99.90
3380;DHT22;1703;51.964;7.642;2023-06-22T10:28:54;25.90;99.90
3380;DHT22;1703;51.964;7.642;2023-06-22T10:31:22;26.00;99.90
3380;DHT22;1703;51.964;7.642;2023-06-22T10:33:49;26.00;99.90
3380;DHT22;1703;51.964;7.642;2023-06-22T10:36:16;26.00;99.90
3380;DHT22;1703;51.964;7.642;2023-06-22T10:38:43;26.10;99.90
3380;DHT22;1703;51.964;7.642;2023-06-22T10:41:10;26.10;99.90
3380;DHT22;1703;51.964;7.642;2023-06-22T10:43:37;26.10;99.90
3380;DHT22;1703;51.964;7.642;2023-06-22T10:46:04;26.20;99.90
3380;DHT22;1703;51.964;7.642;2023-06-22T10:48:32;26.20;99.90
3380;DHT22;1703;51.964;7.642;2023-06-22T10:50:59;26.20;99.90
3380;DHT22;1703;51.964;7.642;2023-06-22T10:53:26;26.30;99.90
3380;DHT22;1703;51.964;7.642;2023-06-22T10:55:54;26.20;99.90
3380;DHT22;1703;51.964;7.642;2023-06-22T10:58:22;26.00;99.90
3380;DHT22;1703;51.964;7.642;2023-06-22T11:00:51;26.00;99.90
3380;DHT22;1703;51.964;7.642;2023-06-22T11:03:17;25.80;99.90
3380;DHT22;1703;51.964;7.642;2023-06-22T11:05:53;25.90;99.90
3380;DHT22;1703;51.964;7.642;2023-06-22T11:08:20;25.90;99.90
3380;DHT22;1703;51.964;7.642;2023-06-22T11:10:46;25.90;99.90
3380;DHT22;1703;51.964;7.642;2023-06-22T11:13:13;25.80;99.90
3380;DHT22;1703;51.964;7.642;2023-06-22T11:15:40;25.80;99.90
3380;DHT22;1703;51.964;7.642;2023-06-22T11:18:07;25.90;99.90
3380;DHT22;1703;51.964;7.642;2023-06-22T11:20:36;25.90;99.90
3380;DHT22;1703;51.964;7.642;2023-06-22T11:23:07;26.00;99.90
3380;DHT22;1703;51.964;7.642;2023-06-22T11:25:34;25.90;99.90
3380;DHT22;1703;51.964;7.642;2023-06-22T11:28:02;26.00;99.90
3380;DHT22;1703;51.964;7.642;2023-06-22T11:30:46;26.00;99.90
3380;DHT22;1703;51.964;7.642;2023-06-22T11:33:52;26.20;99.90
3380;DHT22;1703;51.964;7.642;2023-06-22T11:36:19;26.40;99.90
3380;DHT22;1703;51.964;7.642;2023-06-22T11:38:47;26.50;99.90
3380;DHT22;1703;51.964;7.642;2023-06-22T11:41:14;26.60;99.90
3380;DHT22;1703;51.964;7.642;2023-06-22T11:43:42;26.50;99.90
3380;DHT22;1703;51.964;7.642;2023-06-22T11:46:09;26.50;99.90
3380;DHT22;1703;51.964;7.642;2023-06-22T11:48:36;26.30;99.90
3380;DHT22;1703;51.964;7.642;2023-06-22T11:51:03;26.20;99.90
3380;DHT22;1703;51.964;7.642;2023-06-22T11:53:32;26.20;99.90
3380;DHT22;1703;51.964;7.642;2023-06-22T11:56:01;26.10;99.90
3380;DHT22;1703;51.964;7.642;2023-06-22T11:58:31;26.00;99.90
3380;DHT22;1703;51.964;7.642;2023-06-22T12:00:58;26.00;99.90
3380;DHT22;1703;51.964;7.642;2023-06-22T12:03:24;25.90;99.90
3380;DHT22;1703;51.964;7.642;2023-06-22T12:05:51;25.90;99.90
3380;DHT22;1703;51.964;7.642;2023-06-22T12:08:19;25.90;99.90
3380;DHT22;1703;51.964;7.642;2023-06-22T12:10:45;25.90;99.90
3380;DHT22;1703;51.964;7.642;2023-06-22T12:13:14;25.80;99.90
3380;DHT22;1703;51.964;7.642;2023-06-22T12:15:41;25.80;99.90
3380;DHT22;1703;51.964;7.642;2023-06-22T12:18:08;25.80;99.90
3380;DHT22;1703;51.964;7.642;2023-06-22T12:20:35;25.80;99.90
3380;DHT22;1703;51.964;7.642;2023-06-22T12:23:01;25.70;99.90
3380;DHT22;1703;51.964;7.642;2023-06-22T12:25:28;25.80;99.90
3380;DHT22;1703;51.964;7.642;2023-06-22T12:27:55;25.80;99.90
3380;DHT22;1703;51.964;7.642;2023-06-22T12:30:24;25.80;99.90
3380;DHT22;1703;51.964;7.642;2023-06-22T12:32:50;25.70;99.90
3380;DHT22;1703;51.964;7.642;2023-06-22T12:35:17;25.60;99.90
3380;DHT22;1703;51.964;7.642;2023-06-22T12:37:44;25.60;99.90
3380;DHT22;1703;51.964;7.642;2023-06-22T12:40:11;25.50;99.90
3380;DHT22;1703;51.964;7.642;2023-06-22T12:42:39;25.50;99.90
3380;DHT22;1703;51.964;7.642;2023-06-22T12:45:08;25.40;99.90
3380;DHT22;1703;51.964;7.642;2023-06-22T12:47:36;25.40;99.90
3380;DHT22;1703;51.964;7.642;2023-06-22T12:50:03;25.40;99.90
3380;DHT22;1703;51.964;7.642;2023-06-22T12:52:31;25.30;99.90
3380;DHT22;1703;51.964;7.642;2023-06-22T12:54:58;25.30;99.90
3380;DHT22;1703;51.964;7.642;2023-06-22T12:57:24;25.20;99.90
3380;DHT22;1703;51.964;7.642;2023-06-22T12:59:51;25.20;99.90
3380;DHT22;1703;51.964;7.642;2023-06-22T13:02:18;25.10;99.90
3380;DHT22;1703;51.964;7.642;2023-06-22T13:04:46;25.00;99.90
3380;DHT22;1703;51.964;7.642;2023-06-22T13:07:13;24.90;99.90
3380;DHT22;1703;51.964;7.642;2023-06-22T13:09:40;24.80;99.90
3380;DHT22;1703;51.964;7.642;2023-06-22T13:12:08;24.60;99.90
3380;DHT22;1703;51.964;7.642;2023-06-22T13:14:34;24.50;99.90
3380;DHT22;1703;51.964;7.642;2023-06-22T13:17:01;24.40;99.90
3380;DHT22;1703;51.964;7.642;2023-06-22T13:19:28;24.20;99.90
3380;DHT22;1703;51.964;7.642;2023-06-22T13:21:59;24.10;99.90
3380;DHT22;1703;51.964;7.642;2023-06-22T13:24:28;24.00;99.90
3380;DHT22;1703;51.964;7.642;2023-06-22T13:26:54;23.90;99.90
3380;DHT22;1703;51.964;7.642;2023-06-22T13:29:21;23.90;99.90
3380;DHT22;1703;51.964;7.642;2023-06-22T13:31:48;23.80;99.90
3380;DHT22;1703;51.964;7.642;2023-06-22T13:34:15;23.80;99.90
3380;DHT22;1703;51.964;7.642;2023-06-22T13:36:42;23.80;99.90
3380;DHT22;1703;51.964;7.642;2023-06-22T13:39:10;23.80;99.90
3380;DHT22;1703;51.964;7.642;2023-06-22T13:41:36;23.80;99.90
3380;DHT22;1703;51.964;7.642;2023-06-22T13:44:03;23.90;99.90
3380;DHT22;1703;51.964;7.642;2023-06-22T13:46:30;23.90;99.90
3380;DHT22;1703;51.964;7.642;2023-06-22T13:48:57;23.90;99.90
3380;DHT22;1703;51.964;7.642;2023-06-22T13:51:23;23.80;99.90
3380;DHT22;1703;51.964;7.642;2023-06-22T13:53:50;23.80;99.90
3380;DHT22;1703;51.964;7.642;2023-06-22T13:56:18;23.80;99.90
3380;DHT22;1703;51.964;7.642;2023-06-22T13:58:45;23.80;99.90
3380;DHT22;1703;51.964;7.642;2023-06-22T14:01:12;23.80;99.90
3380;DHT22;1703;51.964;7.642;2023-06-22T14:03:38;23.80;99.90
3380;DHT22;1703;51.964;7.642;2023-06-22T14:06:05;23.80;99.90
3380;DHT22;1703;51.964;7.642;2023-06-22T14:08:32;23.70;99.90
3380;DHT22;1703;51.964;7.642;2023-06-22T14:10:58;23.70;99.90
3380;DHT22;1703;51.964;7.642;2023-06-22T14:13:27;23.70;99.90
3380;DHT22;1703;51.964;7.642;2023-06-22T14:15:53;23.60;99.90
3380;DHT22;1703;51.964;7.642;2023-06-22T14:18:20;23.70;99.90
3380;DHT22;1703;51.964;7.642;2023-06-22T14:20:48;23.70;99.90
3380;DHT22;1703;51.964;7.642;2023-06-22T14:23:15;23.80;99.90
3380;DHT22;1703;51.964;7.642;2023-06-22T14:25:41;23.70;99.90
3380;DHT22;1703;51.964;7.642;2023-06-22T14:28:11;23.60;99.90
3380;DHT22;1703;51.964;7.642;2023-06-22T14:30:39;23.70;99.90
3380;DHT22;1703;51.964;7.642;2023-06-22T14:33:06;23.60;99.90
3380;DHT22;1703;51.964;7.642;2023-06-22T14:35:33;23.50;99.90
3380;DHT22;1703;51.964;7.642;2023-06-22T14:37:59;23.50;99.90
3380;DHT22;1703;51.964;7.642;2023-06-22T14:40:26;23.50;99.90
3380;DHT22;1703;51.964;7.642;2023-06-22T14:42:53;23.40;99.90
3380;DHT22;1703;51.964;7.642;2023-06-22T14:45:22;23.40;99.90
3380;DHT22;1703;51.964;7.642;2023-06-22T14:47:50;23.40;99.90
3380;DHT22;1703;51.964;7.642;2023-06-22T14:50:17;23.50;99.90
3380;DHT22;1703;51.964;7.642;2023-06-22T14:52:44;23.50;99.90
3380;DHT22;1703;51.964;7.642;2023-06-22T14:55:11;23.60;99.90
3380;DHT22;1703;51.964;7.642;2023-06-22T14:57:37;23.70;99.90
3380;DHT22;1703;51.964;7.642;2023-06-22T15:00:05;23.80;99.90
3380;DHT22;1703;51.964;7.642;2023-06-22T15:02:33;23.80;99.90
3380;DHT22;1703;51.964;7.642;2023-06-22T15:05:01;23.80;99.90
3380;DHT22;1703;51.964;7.642;2023-06-22T15:07:27;23.90;99.90
3380;DHT22;1703;51.964;7.642;2023-06-22T15:09:54;23.80;99.90
3380;DHT22;1703;51.964;7.642;2023-06-22T15:12:21;23.80;99.90
3380;DHT22;1703;51.964;7.642;2023-06-22T15:14:48;23.80;99.90
3380;DHT22;1703;51.964;7.642;2023-06-22T15:17:15;23.80;99.90
3380;DHT22;1703;51.964;7.642;2023-06-22T15:19:41;23.70;99.90
3380;DHT22;1703;51.964;7.642;2023-06-22T15:22:09;23.70;99.90
3380;DHT22;1703;51.964;7.642;2023-06-22T15:24:36;23.60;99.90
3380;DHT22;1703;51.964;7.642;2023-06-22T15:27:03;23.60;99.90
3380;DHT22;1703;51.964;7.642;2023-06-22T15:29:30;23.60;99.90
3380;DHT22;1703;51.964;7.642;2023-06-22T15:31:59;23.60;99.90
3380;DHT22;1703;51.964;7.642;2023-06-22T15:34:26;23.40;99.90
3380;DHT22;1703;51.964;7.642;2023-06-22T15:36:56;23.30;99.90
3380;DHT22;1703;51.964;7.642;2023-06-22T15:39:24;23.30;99.90
3380;DHT22;1703;51.964;7.642;2023-06-22T15:41:52;23.20;99.90
3380;DHT22;1703;51.964;7.642;2023-06-22T15:44:19;23.10;99.90
3380;DHT22;1703;51.964;7.642;2023-06-22T15:46:50;23.10;99.90
3380;DHT22;1703;51.964;7.642;2023-06-22T15:49:27;23.10;99.90
3380;DHT22;1703;51.964;7.642;2023-06-22T15:51:54;23.10;99.90
3380;DHT22;1703;51.964;7.642;2023-06-22T15:54:29;23.10;99.90
3380;DHT22;1703;51.964;7.642;2023-06-22T15:56:55;23.10;99.90
3380;DHT22;1703;51.964;7.642;2023-06-22T15:59:22;23.10;99.90
3380;DHT22;1703;51.964;7.642;2023-06-22T16:01:50;23.10;99.90
3380;DHT22;1703;51.964;7.642;2023-06-22T16:04:21;23.10;99.90
3380;DHT22;1703;51.964;7.642;2023-06-22T16:06:51;23.00;99.90
3380;DHT22;1703;51.964;7.642;2023-06-22T16:09:17;23.00;99.90
3380;DHT22;1703;51.964;7.642;2023-06-22T16:11:46;23.00;99.90
3380;DHT22;1703;51.964;7.642;2023-06-22T16:14:13;23.00;99.90
3380;DHT22;1703;51.964;7.642;2023-06-22T16:16:40;23.00;99.90
3380;DHT22;1703;51.964;7.642;2023-06-22T16:19:07;23.10;99.90
3380;DHT22;1703;51.964;7.642;2023-06-22T16:21:34;23.10;99.90